Terminal Aerodrome Forecast
Issued by NWS Sioux Falls, SD

Home | Current Version | Previous Version | Text Only | Print | Product List | Glossary Off
Versions: 1 2 3 4 5 6 7 8 9 10 11 12 13 14 15 16

486
FTUS43 KFSD 141739
TAFFSD
TAF
KFSD 141739Z 1418/1518 31008KT P6SM BKN030
     FM142100 30011KT 6SM -SN SCT015 OVC025
     FM150100 33010G20KT P6SM BKN045
     FM150500 31010KT P6SM BKN045=

USA.gov is the U.S. government's official web portal to all federal, state and local government web resources and services.